sensor_id;sensor_type;location;lat;lon;timestamp;P1;durP1;ratioP1;P2;durP2;ratioP2
19802;SDS011;66074;50.764;6.090;2023-04-25T00:01:33;4.40;;;2.47;;
19802;SDS011;66074;50.764;6.090;2023-04-25T00:04:01;6.43;;;2.53;;
19802;SDS011;66074;50.764;6.090;2023-04-25T00:06:27;7.13;;;3.40;;
19802;SDS011;66074;50.764;6.090;2023-04-25T00:08:55;7.95;;;2.95;;
19802;SDS011;66074;50.764;6.090;2023-04-25T00:11:21;5.03;;;2.53;;
19802;SDS011;66074;50.764;6.090;2023-04-25T00:13:47;3.67;;;2.60;;
19802;SDS011;66074;50.764;6.090;2023-04-25T00:16:14;7.43;;;3.40;;
19802;SDS011;66074;50.764;6.090;2023-04-25T00:18:41;6.18;;;2.50;;
19802;SDS011;66074;50.764;6.090;2023-04-25T00:21:07;6.38;;;3.03;;
19802;SDS011;66074;50.764;6.090;2023-04-25T00:23:33;6.82;;;3.38;;
19802;SDS011;66074;50.764;6.090;2023-04-25T00:26:01;5.18;;;2.80;;
19802;SDS011;66074;50.764;6.090;2023-04-25T00:28:27;4.38;;;2.60;;
19802;SDS011;66074;50.764;6.090;2023-04-25T00:30:53;5.03;;;2.80;;
19802;SDS011;66074;50.764;6.090;2023-04-25T00:33:19;5.13;;;2.50;;
19802;SDS011;66074;50.764;6.090;2023-04-25T00:35:44;6.03;;;2.80;;
19802;SDS011;66074;50.764;6.090;2023-04-25T00:38:10;4.43;;;3.20;;
19802;SDS011;66074;50.764;6.090;2023-04-25T00:40:36;6.57;;;2.72;;
19802;SDS011;66074;50.764;6.090;2023-04-25T00:43:01;8.57;;;4.05;;
19802;SDS011;66074;50.764;6.090;2023-04-25T00:45:27;8.40;;;3.45;;
19802;SDS011;66074;50.764;6.090;2023-04-25T00:47:57;5.22;;;2.97;;
19802;SDS011;66074;50.764;6.090;2023-04-25T00:50:23;6.43;;;2.95;;
19802;SDS011;66074;50.764;6.090;2023-04-25T00:52:49;7.63;;;3.55;;
19802;SDS011;66074;50.764;6.090;2023-04-25T00:55:16;5.25;;;2.97;;
19802;SDS011;66074;50.764;6.090;2023-04-25T00:57:42;6.35;;;2.75;;
19802;SDS011;66074;50.764;6.090;2023-04-25T01:00:08;6.22;;;3.15;;
19802;SDS011;66074;50.764;6.090;2023-04-25T01:02:36;7.78;;;3.17;;
19802;SDS011;66074;50.764;6.090;2023-04-25T01:05:02;7.82;;;3.38;;
19802;SDS011;66074;50.764;6.090;2023-04-25T01:07:28;5.00;;;2.92;;
19802;SDS011;66074;50.764;6.090;2023-04-25T01:09:54;7.78;;;3.33;;
19802;SDS011;66074;50.764;6.090;2023-04-25T01:12:20;6.15;;;3.05;;
19802;SDS011;66074;50.764;6.090;2023-04-25T01:14:46;7.55;;;3.25;;
19802;SDS011;66074;50.764;6.090;2023-04-25T01:17:12;7.03;;;3.42;;
19802;SDS011;66074;50.764;6.090;2023-04-25T01:19:37;8.93;;;3.30;;
19802;SDS011;66074;50.764;6.090;2023-04-25T01:22:04;6.35;;;2.90;;
19802;SDS011;66074;50.764;6.090;2023-04-25T01:24:33;8.68;;;3.63;;
19802;SDS011;66074;50.764;6.090;2023-04-25T01:27:00;6.57;;;3.30;;
19802;SDS011;66074;50.764;6.090;2023-04-25T01:29:27;7.97;;;3.15;;
19802;SDS011;66074;50.764;6.090;2023-04-25T01:31:53;8.20;;;3.17;;
19802;SDS011;66074;50.764;6.090;2023-04-25T01:34:19;7.38;;;3.42;;
19802;SDS011;66074;50.764;6.090;2023-04-25T01:36:46;6.70;;;3.40;;
19802;SDS011;66074;50.764;6.090;2023-04-25T01:39:14;9.63;;;3.60;;
19802;SDS011;66074;50.764;6.090;2023-04-25T01:41:40;9.68;;;3.60;;
19802;SDS011;66074;50.764;6.090;2023-04-25T01:44:06;9.15;;;3.70;;
19802;SDS011;66074;50.764;6.090;2023-04-25T01:46:33;7.72;;;3.65;;
19802;SDS011;66074;50.764;6.090;2023-04-25T01:48:59;7.05;;;3.22;;
19802;SDS011;66074;50.764;6.090;2023-04-25T01:51:25;8.40;;;3.67;;
19802;SDS011;66074;50.764;6.090;2023-04-25T01:53:51;11.90;;;3.85;;
19802;SDS011;66074;50.764;6.090;2023-04-25T01:56:17;10.70;;;4.30;;
19802;SDS011;66074;50.764;6.090;2023-04-25T01:58:43;8.55;;;4.07;;
19802;SDS011;66074;50.764;6.090;2023-04-25T02:01:09;7.55;;;3.55;;
19802;SDS011;66074;50.764;6.090;2023-04-25T02:03:35;9.60;;;4.25;;
19802;SDS011;66074;50.764;6.090;2023-04-25T02:06:01;8.35;;;3.45;;
19802;SDS011;66074;50.764;6.090;2023-04-25T02:08:27;7.38;;;4.15;;
19802;SDS011;66074;50.764;6.090;2023-04-25T02:10:52;9.15;;;4.25;;
19802;SDS011;66074;50.764;6.090;2023-04-25T02:13:18;6.70;;;3.78;;
19802;SDS011;66074;50.764;6.090;2023-04-25T02:15:44;11.52;;;4.18;;
19802;SDS011;66074;50.764;6.090;2023-04-25T02:18:09;11.13;;;3.78;;
19802;SDS011;66074;50.764;6.090;2023-04-25T02:20:36;11.10;;;4.82;;
19802;SDS011;66074;50.764;6.090;2023-04-25T02:23:02;9.23;;;4.03;;
19802;SDS011;66074;50.764;6.090;2023-04-25T02:25:28;9.75;;;4.68;;
19802;SDS011;66074;50.764;6.090;2023-04-25T02:27:54;8.88;;;3.50;;
19802;SDS011;66074;50.764;6.090;2023-04-25T02:30:19;10.65;;;4.75;;
19802;SDS011;66074;50.764;6.090;2023-04-25T02:32:45;7.88;;;3.40;;
19802;SDS011;66074;50.764;6.090;2023-04-25T02:35:11;10.57;;;3.95;;
19802;SDS011;66074;50.764;6.090;2023-04-25T02:37:37;8.43;;;3.17;;
19802;SDS011;66074;50.764;6.090;2023-04-25T02:40:04;9.88;;;3.67;;
19802;SDS011;66074;50.764;6.090;2023-04-25T02:42:30;7.80;;;3.15;;
19802;SDS011;66074;50.764;6.090;2023-04-25T02:44:56;10.63;;;3.90;;
19802;SDS011;66074;50.764;6.090;2023-04-25T02:47:22;12.25;;;4.63;;
19802;SDS011;66074;50.764;6.090;2023-04-25T02:49:47;9.55;;;4.15;;
19802;SDS011;66074;50.764;6.090;2023-04-25T02:52:13;8.85;;;4.72;;
19802;SDS011;66074;50.764;6.090;2023-04-25T02:54:39;8.35;;;4.03;;
19802;SDS011;66074;50.764;6.090;2023-04-25T02:57:05;9.98;;;3.95;;
19802;SDS011;66074;50.764;6.090;2023-04-25T02:59:31;9.63;;;4.57;;
19802;SDS011;66074;50.764;6.090;2023-04-25T03:01:56;11.05;;;4.07;;
19802;SDS011;66074;50.764;6.090;2023-04-25T03:04:22;10.43;;;4.47;;
19802;SDS011;66074;50.764;6.090;2023-04-25T03:06:49;9.85;;;4.63;;
19802;SDS011;66074;50.764;6.090;2023-04-25T03:09:18;8.38;;;4.18;;
19802;SDS011;66074;50.764;6.090;2023-04-25T03:11:44;10.55;;;4.60;;
19802;SDS011;66074;50.764;6.090;2023-04-25T03:14:11;10.27;;;4.43;;
19802;SDS011;66074;50.764;6.090;2023-04-25T03:16:37;9.50;;;4.43;;
19802;SDS011;66074;50.764;6.090;2023-04-25T03:19:03;11.15;;;4.18;;
19802;SDS011;66074;50.764;6.090;2023-04-25T03:21:29;8.57;;;3.97;;
19802;SDS011;66074;50.764;6.090;2023-04-25T03:23:56;12.55;;;4.28;;
19802;SDS011;66074;50.764;6.090;2023-04-25T03:26:23;8.98;;;4.60;;
19802;SDS011;66074;50.764;6.090;2023-04-25T03:28:48;10.52;;;4.13;;
19802;SDS011;66074;50.764;6.090;2023-04-25T03:31:14;11.18;;;5.00;;
19802;SDS011;66074;50.764;6.090;2023-04-25T03:33:40;10.02;;;4.18;;
19802;SDS011;66074;50.764;6.090;2023-04-25T03:36:05;8.63;;;4.50;;
19802;SDS011;66074;50.764;6.090;2023-04-25T03:38:31;14.15;;;5.13;;
19802;SDS011;66074;50.764;6.090;2023-04-25T03:40:57;12.48;;;4.03;;
19802;SDS011;66074;50.764;6.090;2023-04-25T03:43:23;9.70;;;4.13;;
19802;SDS011;66074;50.764;6.090;2023-04-25T03:45:48;12.77;;;4.38;;
19802;SDS011;66074;50.764;6.090;2023-04-25T03:48:14;7.75;;;4.40;;
19802;SDS011;66074;50.764;6.090;2023-04-25T03:50:40;11.75;;;4.38;;
19802;SDS011;66074;50.764;6.090;2023-04-25T03:53:05;8.60;;;3.60;;
19802;SDS011;66074;50.764;6.090;2023-04-25T03:55:31;5.47;;;3.13;;
19802;SDS011;66074;50.764;6.090;2023-04-25T03:57:57;8.40;;;3.90;;
19802;SDS011;66074;50.764;6.090;2023-04-25T04:00:23;9.88;;;4.32;;
19802;SDS011;66074;50.764;6.090;2023-04-25T04:02:50;6.47;;;3.03;;
19802;SDS011;66074;50.764;6.090;2023-04-25T04:05:15;9.65;;;3.58;;
19802;SDS011;66074;50.764;6.090;2023-04-25T04:07:41;7.93;;;3.20;;
19802;SDS011;66074;50.764;6.090;2023-04-25T04:10:08;9.70;;;3.65;;
19802;SDS011;66074;50.764;6.090;2023-04-25T04:12:34;10.77;;;3.55;;
19802;SDS011;66074;50.764;6.090;2023-04-25T04:15:00;8.15;;;3.33;;
19802;SDS011;66074;50.764;6.090;2023-04-25T04:17:28;12.82;;;3.17;;
19802;SDS011;66074;50.764;6.090;2023-04-25T04:19:54;11.88;;;4.95;;
19802;SDS011;66074;50.764;6.090;2023-04-25T04:22:20;11.50;;;3.65;;
19802;SDS011;66074;50.764;6.090;2023-04-25T04:24:45;8.77;;;3.47;;
19802;SDS011;66074;50.764;6.090;2023-04-25T04:27:13;9.45;;;3.65;;
19802;SDS011;66074;50.764;6.090;2023-04-25T04:29:39;11.27;;;4.40;;
19802;SDS011;66074;50.764;6.090;2023-04-25T04:32:04;11.35;;;3.60;;
19802;SDS011;66074;50.764;6.090;2023-04-25T04:34:30;8.20;;;3.38;;
19802;SDS011;66074;50.764;6.090;2023-04-25T04:36:56;14.18;;;4.40;;
19802;SDS011;66074;50.764;6.090;2023-04-25T04:39:22;7.80;;;3.85;;
19802;SDS011;66074;50.764;6.090;2023-04-25T04:41:48;13.02;;;4.25;;
19802;SDS011;66074;50.764;6.090;2023-04-25T04:44:14;12.05;;;3.97;;
19802;SDS011;66074;50.764;6.090;2023-04-25T04:46:40;10.07;;;3.47;;
19802;SDS011;66074;50.764;6.090;2023-04-25T04:49:10;11.23;;;4.15;;
19802;SDS011;66074;50.764;6.090;2023-04-25T04:51:37;11.35;;;3.20;;
19802;SDS011;66074;50.764;6.090;2023-04-25T04:54:03;11.35;;;3.85;;
19802;SDS011;66074;50.764;6.090;2023-04-25T04:56:29;10.35;;;3.95;;
19802;SDS011;66074;50.764;6.090;2023-04-25T04:58:58;12.07;;;3.25;;
19802;SDS011;66074;50.764;6.090;2023-04-25T05:01:25;12.00;;;3.60;;
19802;SDS011;66074;50.764;6.090;2023-04-25T05:03:51;10.48;;;3.90;;
19802;SDS011;66074;50.764;6.090;2023-04-25T05:06:18;9.95;;;3.95;;
19802;SDS011;66074;50.764;6.090;2023-04-25T05:08:44;10.95;;;3.90;;
19802;SDS011;66074;50.764;6.090;2023-04-25T05:11:10;14.07;;;4.43;;
19802;SDS011;66074;50.764;6.090;2023-04-25T05:13:36;7.13;;;3.40;;
19802;SDS011;66074;50.764;6.090;2023-04-25T05:16:01;12.13;;;4.55;;
19802;SDS011;66074;50.764;6.090;2023-04-25T05:18:27;11.50;;;3.67;;
19802;SDS011;66074;50.764;6.090;2023-04-25T05:20:53;12.30;;;4.15;;
19802;SDS011;66074;50.764;6.090;2023-04-25T05:23:19;8.18;;;3.83;;
19802;SDS011;66074;50.764;6.090;2023-04-25T05:25:44;13.65;;;4.55;;
19802;SDS011;66074;50.764;6.090;2023-04-25T05:28:12;11.43;;;4.10;;
19802;SDS011;66074;50.764;6.090;2023-04-25T05:30:38;10.80;;;4.43;;
19802;SDS011;66074;50.764;6.090;2023-04-25T05:33:04;14.75;;;4.80;;
19802;SDS011;66074;50.764;6.090;2023-04-25T05:35:30;11.20;;;4.68;;
19802;SDS011;66074;50.764;6.090;2023-04-25T05:37:56;14.88;;;4.93;;
19802;SDS011;66074;50.764;6.090;2023-04-25T05:40:21;12.18;;;3.75;;
19802;SDS011;66074;50.764;6.090;2023-04-25T05:42:47;12.68;;;4.07;;
19802;SDS011;66074;50.764;6.090;2023-04-25T05:45:13;12.68;;;4.35;;
19802;SDS011;66074;50.764;6.090;2023-04-25T05:47:38;7.55;;;3.50;;
19802;SDS011;66074;50.764;6.090;2023-04-25T05:50:04;9.80;;;3.65;;
19802;SDS011;66074;50.764;6.090;2023-04-25T05:52:31;10.88;;;3.95;;
19802;SDS011;66074;50.764;6.090;2023-04-25T05:54:56;10.43;;;4.00;;
19802;SDS011;66074;50.764;6.090;2023-04-25T05:57:23;10.55;;;4.28;;
19802;SDS011;66074;50.764;6.090;2023-04-25T05:59:51;12.02;;;4.82;;
19802;SDS011;66074;50.764;6.090;2023-04-25T06:02:17;9.70;;;3.72;;
19802;SDS011;66074;50.764;6.090;2023-04-25T06:04:43;10.38;;;3.55;;
19802;SDS011;66074;50.764;6.090;2023-04-25T06:07:09;11.85;;;4.05;;
19802;SDS011;66074;50.764;6.090;2023-04-25T06:09:35;11.35;;;4.32;;
19802;SDS011;66074;50.764;6.090;2023-04-25T06:12:00;11.88;;;3.55;;
19802;SDS011;66074;50.764;6.090;2023-04-25T06:14:26;12.63;;;4.70;;
19802;SDS011;66074;50.764;6.090;2023-04-25T06:16:52;12.02;;;4.05;;
19802;SDS011;66074;50.764;6.090;2023-04-25T06:19:18;8.00;;;3.30;;
19802;SDS011;66074;50.764;6.090;2023-04-25T06:21:44;9.13;;;4.18;;
19802;SDS011;66074;50.764;6.090;2023-04-25T06:24:09;8.52;;;3.65;;
19802;SDS011;66074;50.764;6.090;2023-04-25T06:26:35;9.40;;;4.37;;
19802;SDS011;66074;50.764;6.090;2023-04-25T06:29:01;13.00;;;3.58;;
19802;SDS011;66074;50.764;6.090;2023-04-25T06:31:26;8.68;;;4.10;;
19802;SDS011;66074;50.764;6.090;2023-04-25T06:33:53;12.38;;;4.18;;
19802;SDS011;66074;50.764;6.090;2023-04-25T06:36:22;9.70;;;3.72;;
19802;SDS011;66074;50.764;6.090;2023-04-25T06:38:53;10.60;;;4.20;;
19802;SDS011;66074;50.764;6.090;2023-04-25T06:41:19;8.38;;;3.40;;
19802;SDS011;66074;50.764;6.090;2023-04-25T06:43:45;10.63;;;3.13;;
19802;SDS011;66074;50.764;6.090;2023-04-25T06:46:11;10.75;;;3.17;;
19802;SDS011;66074;50.764;6.090;2023-04-25T06:48:37;11.07;;;4.20;;
19802;SDS011;66074;50.764;6.090;2023-04-25T06:51:03;7.32;;;2.92;;
19802;SDS011;66074;50.764;6.090;2023-04-25T06:53:28;9.23;;;3.35;;
19802;SDS011;66074;50.764;6.090;2023-04-25T06:55:54;8.00;;;2.75;;
19802;SDS011;66074;50.764;6.090;2023-04-25T06:58:20;8.48;;;2.95;;
19802;SDS011;66074;50.764;6.090;2023-04-25T07:00:46;8.75;;;3.20;;
19802;SDS011;66074;50.764;6.090;2023-04-25T07:03:11;8.95;;;2.58;;
19802;SDS011;66074;50.764;6.090;2023-04-25T07:05:37;7.25;;;2.75;;
19802;SDS011;66074;50.764;6.090;2023-04-25T07:08:02;7.13;;;3.28;;
19802;SDS011;66074;50.764;6.090;2023-04-25T07:10:28;8.13;;;3.40;;
19802;SDS011;66074;50.764;6.090;2023-04-25T07:12:54;11.10;;;3.00;;
19802;SDS011;66074;50.764;6.090;2023-04-25T07:15:20;5.45;;;2.58;;
19802;SDS011;66074;50.764;6.090;2023-04-25T07:17:45;10.35;;;3.15;;
19802;SDS011;66074;50.764;6.090;2023-04-25T07:20:11;11.52;;;2.72;;
19802;SDS011;66074;50.764;6.090;2023-04-25T07:22:37;5.13;;;2.28;;
19802;SDS011;66074;50.764;6.090;2023-04-25T07:25:03;20.50;;;3.75;;
19802;SDS011;66074;50.764;6.090;2023-04-25T07:27:31;14.60;;;3.75;;
19802;SDS011;66074;50.764;6.090;2023-04-25T07:29:57;14.45;;;3.00;;
19802;SDS011;66074;50.764;6.090;2023-04-25T07:32:23;14.23;;;3.97;;
19802;SDS011;66074;50.764;6.090;2023-04-25T07:34:48;8.90;;;2.88;;
19802;SDS011;66074;50.764;6.090;2023-04-25T07:37:14;12.15;;;3.40;;
19802;SDS011;66074;50.764;6.090;2023-04-25T07:39:40;12.15;;;3.47;;
19802;SDS011;66074;50.764;6.090;2023-04-25T07:42:06;14.48;;;3.58;;
19802;SDS011;66074;50.764;6.090;2023-04-25T07:44:35;11.13;;;3.88;;
19802;SDS011;66074;50.764;6.090;2023-04-25T07:47:04;14.55;;;3.60;;
19802;SDS011;66074;50.764;6.090;2023-04-25T07:49:32;7.43;;;2.28;;
19802;SDS011;66074;50.764;6.090;2023-04-25T07:52:01;9.43;;;2.78;;
19802;SDS011;66074;50.764;6.090;2023-04-25T07:54:27;7.80;;;2.60;;
19802;SDS011;66074;50.764;6.090;2023-04-25T07:56:53;7.63;;;2.77;;
19802;SDS011;66074;50.764;6.090;2023-04-25T07:59:19;6.90;;;2.63;;
19802;SDS011;66074;50.764;6.090;2023-04-25T08:01:45;7.18;;;2.70;;
19802;SDS011;66074;50.764;6.090;2023-04-25T08:04:10;5.97;;;2.20;;
19802;SDS011;66074;50.764;6.090;2023-04-25T08:06:36;8.55;;;2.72;;
19802;SDS011;66074;50.764;6.090;2023-04-25T08:09:02;7.63;;;2.25;;
19802;SDS011;66074;50.764;6.090;2023-04-25T08:11:28;8.27;;;2.80;;
19802;SDS011;66074;50.764;6.090;2023-04-25T08:13:53;6.30;;;2.70;;
19802;SDS011;66074;50.764;6.090;2023-04-25T08:16:19;8.37;;;2.77;;
19802;SDS011;66074;50.764;6.090;2023-04-25T08:18:45;10.95;;;3.17;;
19802;SDS011;66074;50.764;6.090;2023-04-25T08:21:10;10.93;;;2.67;;
19802;SDS011;66074;50.764;6.090;2023-04-25T08:23:38;9.90;;;2.67;;
19802;SDS011;66074;50.764;6.090;2023-04-25T08:26:04;7.65;;;2.58;;
19802;SDS011;66074;50.764;6.090;2023-04-25T08:28:30;7.10;;;2.60;;
19802;SDS011;66074;50.764;6.090;2023-04-25T08:30:56;6.63;;;2.28;;
19802;SDS011;66074;50.764;6.090;2023-04-25T08:33:22;11.65;;;2.72;;
19802;SDS011;66074;50.764;6.090;2023-04-25T08:35:48;9.20;;;2.67;;
19802;SDS011;66074;50.764;6.090;2023-04-25T08:38:13;7.63;;;2.72;;
19802;SDS011;66074;50.764;6.090;2023-04-25T08:40:39;7.53;;;2.67;;
19802;SDS011;66074;50.764;6.090;2023-04-25T08:43:06;10.07;;;3.00;;
19802;SDS011;66074;50.764;6.090;2023-04-25T08:45:38;4.88;;;2.10;;
19802;SDS011;66074;50.764;6.090;2023-04-25T08:48:07;6.78;;;2.10;;
19802;SDS011;66074;50.764;6.090;2023-04-25T08:50:37;8.88;;;2.03;;
19802;SDS011;66074;50.764;6.090;2023-04-25T08:53:11;7.00;;;2.33;;
19802;SDS011;66074;50.764;6.090;2023-04-25T08:55:41;5.75;;;1.98;;
19802;SDS011;66074;50.764;6.090;2023-04-25T08:58:07;4.03;;;1.80;;
19802;SDS011;66074;50.764;6.090;2023-04-25T09:00:35;8.07;;;2.22;;
19802;SDS011;66074;50.764;6.090;2023-04-25T09:03:01;7.35;;;2.20;;
19802;SDS011;66074;50.764;6.090;2023-04-25T09:05:27;7.32;;;1.90;;
19802;SDS011;66074;50.764;6.090;2023-04-25T09:07:53;6.03;;;1.98;;
19802;SDS011;66074;50.764;6.090;2023-04-25T09:10:21;6.50;;;1.95;;
19802;SDS011;66074;50.764;6.090;2023-04-25T09:15:50;7.38;;;2.33;;
19802;SDS011;66074;50.764;6.090;2023-04-25T09:20:50;4.63;;;1.60;;
19802;SDS011;66074;50.764;6.090;2023-04-25T09:23:18;4.82;;;1.63;;
19802;SDS011;66074;50.764;6.090;2023-04-25T09:25:46;5.70;;;1.77;;
19802;SDS011;66074;50.764;6.090;2023-04-25T09:28:13;6.10;;;1.77;;
19802;SDS011;66074;50.764;6.090;2023-04-25T09:30:39;5.63;;;2.00;;
19802;SDS011;66074;50.764;6.090;2023-04-25T09:33:05;6.30;;;1.95;;
19802;SDS011;66074;50.764;6.090;2023-04-25T09:35:44;3.22;;;1.70;;
19802;SDS011;66074;50.764;6.090;2023-04-25T09:38:18;5.93;;;2.17;;
19802;SDS011;66074;50.764;6.090;2023-04-25T09:40:45;7.07;;;2.15;;
19802;SDS011;66074;50.764;6.090;2023-04-25T09:43:23;8.93;;;2.55;;
19802;SDS011;66074;50.764;6.090;2023-04-25T09:45:50;4.72;;;1.95;;
19802;SDS011;66074;50.764;6.090;2023-04-25T09:48:19;6.63;;;2.20;;
19802;SDS011;66074;50.764;6.090;2023-04-25T09:51:05;7.57;;;2.10;;
19802;SDS011;66074;50.764;6.090;2023-04-25T09:53:42;6.38;;;1.60;;
19802;SDS011;66074;50.764;6.090;2023-04-25T09:56:11;5.10;;;1.70;;
19802;SDS011;66074;50.764;6.090;2023-04-25T09:58:38;6.32;;;2.15;;
19802;SDS011;66074;50.764;6.090;2023-04-25T10:01:05;6.63;;;2.10;;
19802;SDS011;66074;50.764;6.090;2023-04-25T10:03:41;6.22;;;1.70;;
19802;SDS011;66074;50.764;6.090;2023-04-25T10:06:18;7.57;;;2.30;;
19802;SDS011;66074;50.764;6.090;2023-04-25T10:08:46;5.10;;;2.33;;
19802;SDS011;66074;50.764;6.090;2023-04-25T10:11:16;6.90;;;1.60;;
19802;SDS011;66074;50.764;6.090;2023-04-25T10:13:42;6.00;;;2.20;;
19802;SDS011;66074;50.764;6.090;2023-04-25T10:16:09;3.60;;;1.67;;
19802;SDS011;66074;50.764;6.090;2023-04-25T10:18:35;6.80;;;2.42;;
19802;SDS011;66074;50.764;6.090;2023-04-25T10:21:03;8.18;;;2.83;;
19802;SDS011;66074;50.764;6.090;2023-04-25T10:23:31;11.07;;;2.60;;
19802;SDS011;66074;50.764;6.090;2023-04-25T10:25:59;5.45;;;2.22;;
19802;SDS011;66074;50.764;6.090;2023-04-25T10:28:25;6.20;;;2.53;;
19802;SDS011;66074;50.764;6.090;2023-04-25T10:31:04;8.88;;;2.50;;
19802;SDS011;66074;50.764;6.090;2023-04-25T10:33:33;6.05;;;2.30;;
19802;SDS011;66074;50.764;6.090;2023-04-25T10:36:08;5.35;;;2.50;;
19802;SDS011;66074;50.764;6.090;2023-04-25T10:38:37;6.05;;;2.17;;
19802;SDS011;66074;50.764;6.090;2023-04-25T10:41:04;6.28;;;2.22;;
19802;SDS011;66074;50.764;6.090;2023-04-25T10:46:00;8.00;;;2.33;;
19802;SDS011;66074;50.764;6.090;2023-04-25T10:48:30;5.20;;;1.70;;
19802;SDS011;66074;50.764;6.090;2023-04-25T10:51:09;10.82;;;3.10;;
19802;SDS011;66074;50.764;6.090;2023-04-25T10:53:35;7.57;;;2.28;;
19802;SDS011;66074;50.764;6.090;2023-04-25T10:56:11;7.38;;;2.00;;
19802;SDS011;66074;50.764;6.090;2023-04-25T10:58:45;10.32;;;5.82;;
19802;SDS011;66074;50.764;6.090;2023-04-25T11:01:29;6.05;;;2.75;;
19802;SDS011;66074;50.764;6.090;2023-04-25T11:04:06;7.03;;;2.40;;
19802;SDS011;66074;50.764;6.090;2023-04-25T11:07:17;5.75;;;2.42;;
19802;SDS011;66074;50.764;6.090;2023-04-25T11:09:45;5.88;;;2.50;;
19802;SDS011;66074;50.764;6.090;2023-04-25T11:12:11;5.53;;;2.08;;
19802;SDS011;66074;50.764;6.090;2023-04-25T11:14:38;6.13;;;1.77;;
19802;SDS011;66074;50.764;6.090;2023-04-25T11:17:03;6.93;;;2.25;;
19802;SDS011;66074;50.764;6.090;2023-04-25T11:19:30;5.22;;;2.45;;
19802;SDS011;66074;50.764;6.090;2023-04-25T11:21:56;4.50;;;2.40;;
19802;SDS011;66074;50.764;6.090;2023-04-25T11:24:27;7.45;;;2.55;;
19802;SDS011;66074;50.764;6.090;2023-04-25T11:26:57;6.75;;;2.17;;
19802;SDS011;66074;50.764;6.090;2023-04-25T11:29:26;6.13;;;2.17;;
19802;SDS011;66074;50.764;6.090;2023-04-25T11:31:52;9.15;;;2.55;;
19802;SDS011;66074;50.764;6.090;2023-04-25T11:34:21;5.40;;;2.63;;
19802;SDS011;66074;50.764;6.090;2023-04-25T11:36:47;7.72;;;2.75;;
19802;SDS011;66074;50.764;6.090;2023-04-25T11:39:12;5.18;;;1.95;;
19802;SDS011;66074;50.764;6.090;2023-04-25T11:41:40;6.53;;;2.30;;
19802;SDS011;66074;50.764;6.090;2023-04-25T11:44:06;4.65;;;2.20;;
19802;SDS011;66074;50.764;6.090;2023-04-25T11:46:35;4.10;;;2.27;;
19802;SDS011;66074;50.764;6.090;2023-04-25T11:49:00;5.43;;;2.10;;
19802;SDS011;66074;50.764;6.090;2023-04-25T11:51:27;4.43;;;1.77;;
19802;SDS011;66074;50.764;6.090;2023-04-25T11:53:53;5.13;;;2.10;;
19802;SDS011;66074;50.764;6.090;2023-04-25T11:56:21;4.93;;;1.80;;
19802;SDS011;66074;50.764;6.090;2023-04-25T11:58:57;4.32;;;1.73;;
19802;SDS011;66074;50.764;6.090;2023-04-25T12:01:29;6.45;;;2.10;;
19802;SDS011;66074;50.764;6.090;2023-04-25T12:03:57;5.60;;;1.90;;
19802;SDS011;66074;50.764;6.090;2023-04-25T12:06:29;4.82;;;1.83;;
19802;SDS011;66074;50.764;6.090;2023-04-25T12:09:14;6.13;;;2.13;;
19802;SDS011;66074;50.764;6.090;2023-04-25T12:11:44;7.38;;;1.83;;
19802;SDS011;66074;50.764;6.090;2023-04-25T12:14:11;4.60;;;2.28;;
19802;SDS011;66074;50.764;6.090;2023-04-25T12:16:45;3.50;;;1.42;;
19802;SDS011;66074;50.764;6.090;2023-04-25T12:19:15;6.65;;;1.25;;
19802;SDS011;66074;50.764;6.090;2023-04-25T12:21:42;6.32;;;2.58;;
19802;SDS011;66074;50.764;6.090;2023-04-25T12:27:04;4.05;;;1.20;;
19802;SDS011;66074;50.764;6.090;2023-04-25T12:29:31;4.53;;;1.65;;
19802;SDS011;66074;50.764;6.090;2023-04-25T12:31:58;4.45;;;1.67;;
19802;SDS011;66074;50.764;6.090;2023-04-25T12:34:25;3.40;;;1.85;;
19802;SDS011;66074;50.764;6.090;2023-04-25T12:36:51;3.97;;;1.48;;
19802;SDS011;66074;50.764;6.090;2023-04-25T12:39:18;5.72;;;1.98;;
19802;SDS011;66074;50.764;6.090;2023-04-25T12:41:44;2.95;;;1.23;;
19802;SDS011;66074;50.764;6.090;2023-04-25T12:44:11;4.38;;;1.40;;
19802;SDS011;66074;50.764;6.090;2023-04-25T12:46:37;2.65;;;1.35;;
19802;SDS011;66074;50.764;6.090;2023-04-25T12:49:03;3.53;;;1.50;;
19802;SDS011;66074;50.764;6.090;2023-04-25T12:51:29;4.43;;;1.58;;
19802;SDS011;66074;50.764;6.090;2023-04-25T12:53:57;5.07;;;2.83;;
19802;SDS011;66074;50.764;6.090;2023-04-25T12:56:23;1.98;;;1.10;;
19802;SDS011;66074;50.764;6.090;2023-04-25T12:58:50;6.03;;;1.58;;
19802;SDS011;66074;50.764;6.090;2023-04-25T13:01:16;3.63;;;1.27;;
19802;SDS011;66074;50.764;6.090;2023-04-25T13:03:41;4.65;;;1.73;;
19802;SDS011;66074;50.764;6.090;2023-04-25T13:06:07;2.95;;;1.13;;
19802;SDS011;66074;50.764;6.090;2023-04-25T13:08:33;3.42;;;1.33;;
19802;SDS011;66074;50.764;6.090;2023-04-25T13:10:59;5.72;;;1.83;;
19802;SDS011;66074;50.764;6.090;2023-04-25T13:13:25;5.47;;;1.38;;
19802;SDS011;66074;50.764;6.090;2023-04-25T13:15:52;3.47;;;1.33;;
19802;SDS011;66074;50.764;6.090;2023-04-25T13:18:18;5.10;;;1.75;;
19802;SDS011;66074;50.764;6.090;2023-04-25T13:20:44;5.32;;;1.40;;
19802;SDS011;66074;50.764;6.090;2023-04-25T13:23:11;4.13;;;1.42;;
19802;SDS011;66074;50.764;6.090;2023-04-25T13:25:37;3.85;;;1.50;;
19802;SDS011;66074;50.764;6.090;2023-04-25T13:28:02;5.30;;;1.67;;
19802;SDS011;66074;50.764;6.090;2023-04-25T13:30:28;2.72;;;1.65;;
19802;SDS011;66074;50.764;6.090;2023-04-25T13:32:54;4.88;;;1.70;;
19802;SDS011;66074;50.764;6.090;2023-04-25T13:35:21;2.53;;;1.20;;
19802;SDS011;66074;50.764;6.090;2023-04-25T13:37:47;4.70;;;1.10;;
19802;SDS011;66074;50.764;6.090;2023-04-25T13:40:13;3.97;;;1.10;;
19802;SDS011;66074;50.764;6.090;2023-04-25T13:42:38;3.88;;;2.00;;
19802;SDS011;66074;50.764;6.090;2023-04-25T13:45:05;4.50;;;1.27;;
19802;SDS011;66074;50.764;6.090;2023-04-25T13:47:31;5.47;;;1.50;;
19802;SDS011;66074;50.764;6.090;2023-04-25T13:49:57;5.78;;;1.77;;
19802;SDS011;66074;50.764;6.090;2023-04-25T13:52:23;3.67;;;1.52;;
19802;SDS011;66074;50.764;6.090;2023-04-25T13:54:52;3.50;;;1.38;;
19802;SDS011;66074;50.764;6.090;2023-04-25T13:57:17;4.53;;;1.95;;
19802;SDS011;66074;50.764;6.090;2023-04-25T13:59:43;4.00;;;1.38;;
19802;SDS011;66074;50.764;6.090;2023-04-25T14:02:09;5.10;;;1.40;;
19802;SDS011;66074;50.764;6.090;2023-04-25T14:04:34;4.43;;;1.67;;
19802;SDS011;66074;50.764;6.090;2023-04-25T14:07:00;3.92;;;1.50;;
19802;SDS011;66074;50.764;6.090;2023-04-25T14:09:27;3.25;;;1.85;;
19802;SDS011;66074;50.764;6.090;2023-04-25T14:11:53;6.75;;;1.60;;
19802;SDS011;66074;50.764;6.090;2023-04-25T14:14:19;2.25;;;1.40;;
19802;SDS011;66074;50.764;6.090;2023-04-25T14:16:46;3.40;;;1.45;;
19802;SDS011;66074;50.764;6.090;2023-04-25T14:19:15;4.03;;;1.40;;
19802;SDS011;66074;50.764;6.090;2023-04-25T14:21:42;2.20;;;1.40;;
19802;SDS011;66074;50.764;6.090;2023-04-25T14:24:10;4.88;;;1.40;;
19802;SDS011;66074;50.764;6.090;2023-04-25T14:26:36;5.60;;;2.10;;
19802;SDS011;66074;50.764;6.090;2023-04-25T14:29:03;5.35;;;2.17;;
19802;SDS011;66074;50.764;6.090;2023-04-25T14:31:30;4.15;;;1.48;;
19802;SDS011;66074;50.764;6.090;2023-04-25T14:33:56;6.07;;;1.50;;
19802;SDS011;66074;50.764;6.090;2023-04-25T14:36:22;2.60;;;1.52;;
19802;SDS011;66074;50.764;6.090;2023-04-25T14:38:47;5.45;;;1.70;;
19802;SDS011;66074;50.764;6.090;2023-04-25T14:41:13;3.85;;;1.92;;
19802;SDS011;66074;50.764;6.090;2023-04-25T14:43:39;6.82;;;1.55;;
19802;SDS011;66074;50.764;6.090;2023-04-25T14:46:06;4.82;;;1.30;;
19802;SDS011;66074;50.764;6.090;2023-04-25T14:48:32;3.13;;;1.48;;
19802;SDS011;66074;50.764;6.090;2023-04-25T14:50:58;2.47;;;1.30;;
19802;SDS011;66074;50.764;6.090;2023-04-25T14:53:25;2.55;;;1.25;;
19802;SDS011;66074;50.764;6.090;2023-04-25T14:55:51;2.53;;;1.33;;